createdAt,value
2019-04-04T00:02:37.740Z,1.67
2019-04-04T00:05:26.134Z,2.77
2019-04-04T00:08:14.521Z,2.50
2019-04-04T00:11:02.146Z,1.33
2019-04-04T00:13:49.540Z,1.57
2019-04-04T00:16:37.375Z,1.60
2019-04-04T00:19:25.365Z,1.40
2019-04-04T00:22:13.595Z,1.50
2019-04-04T00:25:01.794Z,1.67
2019-04-04T00:27:49.176Z,1.93
2019-04-04T00:30:37.083Z,1.63
2019-04-04T00:33:25.738Z,1.47
2019-04-04T00:36:14.077Z,2.60
2019-04-04T00:39:01.474Z,1.70
2019-04-04T00:41:49.814Z,1.67
2019-04-04T00:44:37.353Z,1.50
2019-04-04T00:47:25.009Z,2.00
2019-04-04T00:50:12.598Z,2.03
2019-04-04T00:53:00.751Z,1.93
2019-04-04T00:55:48.325Z,2.10
2019-04-04T00:58:35.828Z,2.00
2019-04-04T01:01:26.047Z,1.90
2019-04-04T01:04:13.174Z,2.20
2019-04-04T01:07:03.002Z,2.07
2019-04-04T01:09:50.652Z,2.00
2019-04-04T01:12:38.213Z,2.30
2019-04-04T01:15:26.248Z,2.23
2019-04-04T01:18:14.257Z,3.00
2019-04-04T01:21:01.786Z,2.23
2019-04-04T01:23:49.006Z,2.57
2019-04-04T01:26:37.090Z,2.67
2019-04-04T01:29:25.097Z,2.40
2019-04-04T01:32:12.552Z,2.30
2019-04-04T01:35:00.047Z,2.90
2019-04-04T01:37:47.505Z,2.43
2019-04-04T01:40:35.149Z,3.73
2019-04-04T01:43:22.370Z,2.77
2019-04-04T01:46:09.941Z,2.90
2019-04-04T01:48:57.584Z,3.17
2019-04-04T01:51:45.040Z,2.60
2019-04-04T01:54:32.880Z,3.03
2019-04-04T01:57:20.633Z,4.27
2019-04-04T02:00:10.268Z,2.80
2019-04-04T02:02:57.776Z,2.80
2019-04-04T02:05:45.633Z,3.10
2019-04-04T02:08:33.148Z,3.13
2019-04-04T02:11:20.954Z,3.50
2019-04-04T02:14:11.537Z,3.20
2019-04-04T02:16:57.880Z,4.40
2019-04-04T02:19:45.136Z,3.20
2019-04-04T02:22:33.304Z,3.77
2019-04-04T02:25:20.800Z,3.50
2019-04-04T02:28:08.948Z,3.20
2019-04-04T02:30:57.205Z,3.53
2019-04-04T02:33:44.629Z,3.33
2019-04-04T02:36:32.422Z,3.30
2019-04-04T02:39:20.305Z,2.97
2019-04-04T02:42:08.181Z,3.17
2019-04-04T02:44:56.156Z,3.30
2019-04-04T02:47:43.622Z,3.30
2019-04-04T02:50:34.338Z,3.40
2019-04-04T02:53:21.057Z,3.17
2019-04-04T02:56:08.645Z,3.20
2019-04-04T02:58:56.445Z,3.40
2019-04-04T03:01:43.956Z,3.10
2019-04-04T03:04:31.555Z,3.27
2019-04-04T03:07:19.233Z,3.40
2019-04-04T03:10:06.866Z,3.23
2019-04-04T03:12:57.997Z,3.40
2019-04-04T03:15:47.427Z,3.37
2019-04-04T03:18:34.727Z,3.67
2019-04-04T03:21:23.774Z,3.50
2019-04-04T03:24:11.470Z,3.60
2019-04-04T03:26:58.796Z,4.17
2019-04-04T03:29:46.274Z,4.27
2019-04-04T03:32:33.722Z,3.70
2019-04-04T03:35:25.621Z,3.90
2019-04-04T03:38:13.025Z,3.87
2019-04-04T03:41:00.102Z,4.80
2019-04-04T03:43:48.998Z,3.37
2019-04-04T03:46:38.814Z,3.87
2019-04-04T03:49:25.668Z,4.43
2019-04-04T03:52:13.103Z,4.57
2019-04-04T03:55:00.857Z,4.73
2019-04-04T03:57:48.804Z,4.53
2019-04-04T04:00:39.479Z,5.00
2019-04-04T04:03:25.982Z,5.23
2019-04-04T04:06:13.666Z,5.33
2019-04-04T04:09:01.289Z,5.60
2019-04-04T04:11:49.406Z,5.20
2019-04-04T04:14:37.078Z,5.60
2019-04-04T04:17:24.565Z,5.20
2019-04-04T04:20:12.709Z,5.13
2019-04-04T04:23:00.066Z,6.00
2019-04-04T04:25:47.450Z,5.93
2019-04-04T04:28:35.131Z,5.97
2019-04-04T04:31:22.648Z,5.87
2019-04-04T04:34:09.839Z,6.43
2019-04-04T04:36:57.496Z,6.37
2019-04-04T04:39:45.473Z,6.60
2019-04-04T04:42:32.834Z,6.60
2019-04-04T04:45:20.069Z,6.37
2019-04-04T04:48:07.617Z,6.33
2019-04-04T04:50:55.523Z,6.43
2019-04-04T04:53:43.284Z,6.17
2019-04-04T04:56:31.928Z,6.47
2019-04-04T04:59:19.552Z,6.67
2019-04-04T05:02:06.668Z,6.30
2019-04-04T05:04:53.852Z,7.30
2019-04-04T05:07:41.384Z,6.83
2019-04-04T05:10:28.716Z,6.97
2019-04-04T05:13:16.205Z,7.00
2019-04-04T05:16:05.179Z,7.17
2019-04-04T05:18:53.072Z,7.47
2019-04-04T05:21:40.604Z,8.03
2019-04-04T05:24:28.166Z,9.37
2019-04-04T05:27:16.615Z,8.40
2019-04-04T05:30:04.516Z,8.63
2019-04-04T05:32:56.143Z,8.60
2019-04-04T05:35:41.639Z,10.87
2019-04-04T05:38:28.885Z,9.57
2019-04-04T05:41:16.782Z,11.87
2019-04-04T05:44:04.460Z,12.23
2019-04-04T05:46:52.186Z,12.07
2019-04-04T05:49:39.821Z,11.77
2019-04-04T05:52:27.570Z,11.57
2019-04-04T05:55:15.428Z,10.87
2019-04-04T05:58:02.744Z,12.83
2019-04-04T06:00:50.305Z,9.97
2019-04-04T06:03:38.279Z,10.83
2019-04-04T06:06:26.278Z,9.73
2019-04-04T06:09:14.783Z,11.20
2019-04-04T06:12:02.524Z,10.63
2019-04-04T06:14:50.421Z,11.67
2019-04-04T06:17:39.127Z,14.07
2019-04-04T06:20:27.497Z,14.07
2019-04-04T06:23:14.935Z,13.93
2019-04-04T06:26:06.458Z,13.57
2019-04-04T06:28:51.917Z,14.93
2019-04-04T06:31:39.374Z,15.27
2019-04-04T06:34:26.897Z,15.23
2019-04-04T06:37:14.976Z,17.10
2019-04-04T06:40:02.837Z,17.13
2019-04-04T06:42:50.697Z,16.53
2019-04-04T06:45:38.287Z,21.90
2019-04-04T06:48:27.195Z,19.80
2019-04-04T06:51:15.125Z,19.60
2019-04-04T06:54:03.097Z,20.80
2019-04-04T06:56:50.928Z,23.77
2019-04-04T06:59:38.296Z,18.77
2019-04-04T07:02:26.084Z,22.27
2019-04-04T07:05:14.572Z,21.17
2019-04-04T07:08:02.774Z,21.67
2019-04-04T07:10:57.804Z,28.70
2019-04-04T07:13:42.593Z,26.27
2019-04-04T07:16:28.421Z,26.57
2019-04-04T07:19:16.232Z,29.07
2019-04-04T07:22:04.066Z,27.53
2019-04-04T07:24:52.384Z,24.77
2019-04-04T07:27:39.939Z,24.43
2019-04-04T07:30:28.403Z,24.27
2019-04-04T07:33:16.976Z,21.97
2019-04-04T07:36:05.060Z,22.50
2019-04-04T07:38:52.764Z,26.20
2019-04-04T07:41:44.678Z,25.30
2019-04-04T07:44:29.804Z,28.70
2019-04-04T07:47:17.299Z,26.90
2019-04-04T07:50:05.511Z,23.77
2019-04-04T07:52:53.252Z,24.00
2019-04-04T07:55:42.213Z,24.93
2019-04-04T07:58:29.603Z,26.80
2019-04-04T08:01:16.903Z,27.07
2019-04-04T08:04:06.482Z,29.77
2019-04-04T08:06:53.033Z,29.00
2019-04-04T08:09:40.634Z,32.70
2019-04-04T08:12:28.209Z,33.47
2019-04-04T08:15:15.888Z,32.47
2019-04-04T08:18:04.265Z,35.70
2019-04-04T08:20:51.877Z,29.00
2019-04-04T08:23:39.572Z,25.30
2019-04-04T08:26:27.152Z,25.97
2019-04-04T08:29:14.971Z,24.77
2019-04-04T08:32:02.943Z,24.00
2019-04-04T08:34:50.716Z,20.93
2019-04-04T08:37:38.624Z,21.70
2019-04-04T08:40:26.385Z,19.07
2019-04-04T08:43:14.312Z,17.67
2019-04-04T08:46:01.815Z,21.00
2019-04-04T08:48:49.328Z,18.13
2019-04-04T08:51:36.808Z,18.47
2019-04-04T08:54:24.411Z,18.03
2019-04-04T08:57:11.868Z,17.43
2019-04-04T08:59:59.573Z,18.73
2019-04-04T09:02:47.123Z,19.20
2019-04-04T09:05:34.669Z,16.13
2019-04-04T09:08:22.716Z,15.80
2019-04-04T09:11:10.656Z,16.43
2019-04-04T09:13:58.146Z,16.40
2019-04-04T09:16:45.643Z,16.80
2019-04-04T09:19:33.185Z,15.07
2019-04-04T09:22:23.868Z,13.50
2019-04-04T09:25:10.978Z,11.20
2019-04-04T09:27:58.873Z,13.57
2019-04-04T09:30:46.498Z,14.50
2019-04-04T09:33:33.973Z,10.70
2019-04-04T09:36:21.912Z,13.03
2019-04-04T09:39:09.722Z,11.67
2019-04-04T09:41:57.188Z,12.80
2019-04-04T09:44:44.884Z,14.23
2019-04-04T09:47:32.778Z,15.37
2019-04-04T09:50:20.280Z,15.17
2019-04-04T09:53:08.180Z,15.33
2019-04-04T09:55:55.722Z,14.73
2019-04-04T09:58:43.040Z,16.03
2019-04-04T10:01:30.420Z,15.63
2019-04-04T10:04:17.989Z,15.87
2019-04-04T10:07:06.096Z,15.23
2019-04-04T10:09:53.375Z,16.20
2019-04-04T10:12:40.656Z,17.43
2019-04-04T10:15:28.201Z,17.90
2019-04-04T10:18:16.056Z,18.20
2019-04-04T10:21:11.906Z,17.70
2019-04-04T10:23:52.881Z,16.90
2019-04-04T10:26:40.746Z,17.03
2019-04-04T10:29:28.563Z,17.97
2019-04-04T10:32:16.152Z,15.33
2019-04-04T10:35:04.077Z,18.43
2019-04-04T10:37:51.989Z,15.30
2019-04-04T10:40:39.648Z,14.73
2019-04-04T10:43:26.768Z,17.03
2019-04-04T10:46:14.208Z,18.83
2019-04-04T10:49:01.903Z,15.93
2019-04-04T10:51:49.455Z,15.37
2019-04-04T10:54:36.860Z,14.07
2019-04-04T10:57:24.464Z,15.83
2019-04-04T11:00:13.016Z,13.77
2019-04-04T11:03:01.084Z,12.73
2019-04-04T11:05:48.905Z,15.13
2019-04-04T11:08:36.911Z,16.25
2019-04-04T11:11:25.118Z,17.30
2019-04-04T11:14:12.917Z,17.07
2019-04-04T11:17:00.146Z,17.20
2019-04-04T11:19:47.749Z,19.80
2019-04-04T11:22:35.765Z,19.80
2019-04-04T11:25:23.408Z,18.97
2019-04-04T11:28:11.332Z,17.50
2019-04-04T11:30:59.048Z,17.37
2019-04-04T11:33:46.544Z,19.27
2019-04-04T11:36:34.019Z,18.40
2019-04-04T11:39:22.125Z,22.73
2019-04-04T11:42:09.872Z,22.73
2019-04-04T11:44:57.604Z,18.67
2019-04-04T11:47:44.804Z,18.30
2019-04-04T11:50:32.380Z,17.97
2019-04-04T11:53:20.435Z,17.07
2019-04-04T11:56:08.156Z,16.23
2019-04-04T11:58:55.664Z,14.57
2019-04-04T12:01:44.433Z,11.50
2019-04-04T12:04:31.790Z,10.70
2019-04-04T12:07:19.637Z,11.60
2019-04-04T12:10:08.254Z,10.80
2019-04-04T12:12:58.449Z,12.37
2019-04-04T12:15:45.525Z,10.37
2019-04-04T12:18:32.987Z,12.23
2019-04-04T12:21:20.413Z,9.93
2019-04-04T12:24:07.968Z,11.63
2019-04-04T12:26:55.644Z,13.80
2019-04-04T12:29:43.608Z,10.03
2019-04-04T12:32:31.028Z,11.13
2019-04-04T12:35:18.475Z,10.80
2019-04-04T12:38:06.160Z,12.63
2019-04-04T12:40:53.363Z,13.87
2019-04-04T12:43:41.153Z,11.47
2019-04-04T12:46:29.468Z,12.03
2019-04-04T12:49:17.120Z,10.83
2019-04-04T12:52:04.989Z,10.10
2019-04-04T12:54:52.451Z,10.03
2019-04-04T12:57:40.492Z,9.60
2019-04-04T13:00:27.896Z,9.50
2019-04-04T13:03:15.334Z,10.37
2019-04-04T13:06:02.785Z,11.90
2019-04-04T13:08:50.501Z,9.47
2019-04-04T13:11:38.391Z,8.43
2019-04-04T13:14:25.767Z,8.63
2019-04-04T13:17:13.256Z,7.63
2019-04-04T13:20:00.423Z,8.03
2019-04-04T13:22:47.757Z,8.77
2019-04-04T13:25:35.259Z,7.40
2019-04-04T13:28:22.677Z,7.73
2019-04-04T13:31:10.999Z,6.70
2019-04-04T13:33:58.771Z,9.60
2019-04-04T13:36:46.532Z,5.73
2019-04-04T13:39:34.465Z,4.17
2019-04-04T13:42:22.145Z,6.50
2019-04-04T13:45:10.081Z,6.83
2019-04-04T13:47:58.032Z,4.97
2019-04-04T13:50:45.748Z,5.00
2019-04-04T13:53:33.466Z,4.23
2019-04-04T13:56:20.968Z,5.27
2019-04-04T13:59:08.965Z,5.57
2019-04-04T14:01:56.566Z,6.97
2019-04-04T14:04:44.157Z,4.87
2019-04-04T14:07:31.656Z,5.73
2019-04-04T14:10:19.915Z,5.43
2019-04-04T14:13:07.278Z,5.43
2019-04-04T14:15:54.880Z,5.80
2019-04-04T14:18:44.443Z,5.93
2019-04-04T14:21:32.006Z,6.30
2019-04-04T14:24:19.826Z,6.57
2019-04-04T14:27:07.549Z,5.80
2019-04-04T14:29:55.359Z,6.73
2019-04-04T14:32:42.880Z,5.53
2019-04-04T14:35:30.555Z,7.23
2019-04-04T14:38:18.373Z,5.97
2019-04-04T14:41:11.510Z,6.83
2019-04-04T14:43:55.588Z,6.47
2019-04-04T14:46:43.329Z,6.27
2019-04-04T14:49:30.784Z,6.20
2019-04-04T14:52:19.925Z,6.37
2019-04-04T14:55:08.518Z,6.07
2019-04-04T14:57:55.827Z,6.23
2019-04-04T15:00:43.641Z,6.13
2019-04-04T15:03:31.058Z,6.43
2019-04-04T15:06:18.880Z,7.00
2019-04-04T15:09:09.762Z,6.90
2019-04-04T15:11:57.440Z,6.67
2019-04-04T15:14:44.944Z,5.60
2019-04-04T15:17:32.752Z,6.20
2019-04-04T15:20:20.816Z,6.10
2019-04-04T15:23:08.229Z,6.30
2019-04-04T15:25:56.236Z,7.63
2019-04-04T15:28:43.723Z,5.40
2019-04-04T15:31:31.848Z,5.07
2019-04-04T15:34:19.288Z,4.70
2019-04-04T15:37:06.822Z,4.60
2019-04-04T15:39:54.564Z,4.50
2019-04-04T15:42:41.962Z,4.27
2019-04-04T15:45:29.112Z,3.97
2019-04-04T15:48:16.737Z,4.47
2019-04-04T15:51:04.757Z,4.30
2019-04-04T15:53:52.292Z,4.40
2019-04-04T15:56:40.068Z,4.37
2019-04-04T15:59:27.624Z,3.70
2019-04-04T16:02:14.952Z,4.03
2019-04-04T16:05:02.473Z,3.37
2019-04-04T16:07:49.901Z,3.60
2019-04-04T16:10:38.497Z,3.83
2019-04-04T16:13:25.737Z,2.97
2019-04-04T16:16:13.013Z,2.90
2019-04-04T16:19:00.877Z,4.20
2019-04-04T16:21:48.616Z,3.43
2019-04-04T16:24:36.203Z,2.80
2019-04-04T16:27:23.930Z,3.70
2019-04-04T16:30:12.640Z,3.50
2019-04-04T16:33:00.486Z,3.33
2019-04-04T16:35:47.931Z,3.00
2019-04-04T16:38:35.219Z,3.10
2019-04-04T16:41:22.868Z,3.20
2019-04-04T16:44:10.480Z,3.20
2019-04-04T16:46:58.217Z,3.77
2019-04-04T16:49:46.004Z,2.97
2019-04-04T16:52:34.105Z,2.70
2019-04-04T16:55:21.576Z,2.40
2019-04-04T16:58:09.663Z,2.70
2019-04-04T17:00:57.417Z,3.00
2019-04-04T17:03:45.353Z,3.23
2019-04-04T17:06:32.852Z,3.47
2019-04-04T17:09:21.331Z,2.70
2019-04-04T17:12:14.691Z,3.43
2019-04-04T17:14:59.072Z,4.97
2019-04-04T17:17:46.707Z,3.30
2019-04-04T17:20:34.528Z,2.70
2019-04-04T17:23:21.652Z,3.37
2019-04-04T17:26:09.264Z,3.37
2019-04-04T17:28:57.294Z,4.07
2019-04-04T17:31:45.010Z,4.57
2019-04-04T17:34:34.046Z,4.00
2019-04-04T17:37:21.828Z,3.40
2019-04-04T17:40:10.343Z,3.10
2019-04-04T17:42:58.052Z,3.43
2019-04-04T17:45:45.245Z,3.20
2019-04-04T17:48:33.134Z,4.33
2019-04-04T17:51:20.636Z,3.50
2019-04-04T17:54:08.737Z,2.93
2019-04-04T17:56:56.232Z,3.20
2019-04-04T17:59:43.816Z,3.70
2019-04-04T18:02:31.038Z,3.40
2019-04-04T18:05:18.707Z,3.80
2019-04-04T18:08:06.168Z,5.33
2019-04-04T18:11:13.580Z,3.43
2019-04-04T18:14:01.216Z,3.43
2019-04-04T18:16:48.992Z,4.90
2019-04-04T18:19:36.512Z,3.50
2019-04-04T18:22:24.068Z,3.63
2019-04-04T18:25:12.892Z,3.87
2019-04-04T18:28:00.452Z,3.13
2019-04-04T18:30:47.692Z,2.00
2019-04-04T18:33:35.698Z,1.97
2019-04-04T18:36:23.176Z,1.90
2019-04-04T18:39:11.683Z,2.23
2019-04-04T18:41:58.977Z,2.73
2019-04-04T18:44:46.976Z,2.80
2019-04-04T18:47:34.477Z,3.00
2019-04-04T18:50:22.009Z,2.77
2019-04-04T18:53:09.521Z,4.23
2019-04-04T18:55:57.351Z,3.00
2019-04-04T18:58:45.120Z,3.87
2019-04-04T19:01:32.620Z,4.20
2019-04-04T19:04:20.206Z,3.17
2019-04-04T19:07:07.895Z,6.77
2019-04-04T19:09:55.044Z,2.93
2019-04-04T19:12:42.796Z,5.87
2019-04-04T19:15:30.116Z,6.20
2019-04-04T19:18:17.967Z,5.10
2019-04-04T19:21:05.837Z,39.43
2019-04-04T19:23:54.243Z,16.57
2019-04-04T19:26:42.076Z,11.10
2019-04-04T19:29:31.550Z,6.43
2019-04-04T19:32:19.187Z,14.50
2019-04-04T19:35:08.013Z,6.13
2019-04-04T19:38:00.361Z,2.90
2019-04-04T19:40:45.668Z,3.50
2019-04-04T19:43:33.070Z,5.03
2019-04-04T19:46:20.847Z,9.90
2019-04-04T19:49:08.384Z,9.07
2019-04-04T19:51:56.063Z,9.47
2019-04-04T19:54:43.516Z,9.17
2019-04-04T19:57:31.404Z,14.90
2019-04-04T20:00:19.896Z,6.53
2019-04-04T20:03:07.500Z,7.80
2019-04-04T20:05:55.317Z,5.30
2019-04-04T20:08:42.819Z,7.80
2019-04-04T20:11:30.748Z,3.70
2019-04-04T20:14:18.496Z,6.93
2019-04-04T20:17:06.240Z,4.67
2019-04-04T20:19:54.012Z,6.67
2019-04-04T20:22:41.896Z,3.50
2019-04-04T20:25:29.883Z,4.27
2019-04-04T20:28:17.391Z,3.20
2019-04-04T20:31:04.893Z,3.37
2019-04-04T20:34:01.475Z,4.00
2019-04-04T20:36:42.702Z,5.40
2019-04-04T20:39:30.025Z,4.07
2019-04-04T20:42:17.570Z,4.50
2019-04-04T20:45:05.842Z,3.47
2019-04-04T20:47:53.717Z,4.70
2019-04-04T20:50:41.581Z,4.93
2019-04-04T20:53:29.860Z,4.30
2019-04-04T20:56:18.227Z,4.00
2019-04-04T20:59:05.849Z,4.50
2019-04-04T21:01:53.713Z,4.97
2019-04-04T21:04:40.984Z,6.63
2019-04-04T21:07:28.486Z,6.70
2019-04-04T21:10:15.795Z,6.47
2019-04-04T21:13:03.792Z,5.70
2019-04-04T21:15:51.481Z,6.07
2019-04-04T21:18:39.655Z,8.43
2019-04-04T21:21:27.372Z,6.80
2019-04-04T21:24:14.988Z,7.17
2019-04-04T21:27:02.480Z,7.03
2019-04-04T21:29:50.072Z,6.60
2019-04-04T21:32:37.568Z,6.97
2019-04-04T21:35:25.340Z,7.00
2019-04-04T21:38:13.045Z,6.77
2019-04-04T21:41:00.521Z,7.13
2019-04-04T21:43:48.522Z,7.53
2019-04-04T21:46:36.337Z,7.43
2019-04-04T21:49:24.023Z,7.37
2019-04-04T21:52:11.464Z,8.27
2019-04-04T21:54:59.143Z,6.77
2019-04-04T21:57:46.675Z,7.33
2019-04-04T22:00:41.008Z,7.70
2019-04-04T22:03:28.884Z,7.43
2019-04-04T22:06:16.634Z,8.17
2019-04-04T22:09:07.137Z,7.70
2019-04-04T22:11:55.333Z,7.57
2019-04-04T22:14:43.020Z,7.17
2019-04-04T22:17:31.781Z,7.73
2019-04-04T22:20:19.447Z,7.90
2019-04-04T22:23:06.840Z,8.57
2019-04-04T22:25:54.905Z,8.50
2019-04-04T22:28:42.496Z,7.77
2019-04-04T22:31:30.828Z,9.40
2019-04-04T22:34:18.629Z,6.90
2019-04-04T22:37:06.428Z,8.30
2019-04-04T22:39:54.181Z,8.83
2019-04-04T22:42:42.247Z,8.67
2019-04-04T22:45:30.335Z,8.83
2019-04-04T22:48:17.769Z,8.30
2019-04-04T22:51:05.628Z,8.57
2019-04-04T22:53:53.200Z,8.60
2019-04-04T22:56:40.505Z,9.03
2019-04-04T22:59:28.344Z,8.60
2019-04-04T23:02:16.396Z,8.07
2019-04-04T23:05:04.544Z,8.20
2019-04-04T23:07:52.147Z,8.57
2019-04-04T23:10:39.797Z,8.60
2019-04-04T23:13:27.073Z,8.07
2019-04-04T23:16:14.915Z,7.30
2019-04-04T23:19:02.672Z,8.53
2019-04-04T23:21:50.056Z,8.33
2019-04-04T23:24:37.440Z,8.00
2019-04-04T23:27:24.828Z,8.47
2019-04-04T23:30:12.818Z,7.77
2019-04-04T23:33:00.312Z,8.00
2019-04-04T23:35:47.544Z,8.10
2019-04-04T23:38:35.594Z,8.10
2019-04-04T23:41:23.656Z,7.97
2019-04-04T23:44:11.137Z,8.03
2019-04-04T23:46:58.560Z,8.10
2019-04-04T23:49:46.060Z,8.83
2019-04-04T23:52:33.896Z,8.10
2019-04-04T23:55:21.288Z,8.47
2019-04-04T23:58:08.693Z,8.53
